createdAt,value
2018-07-23T00:02:28.736Z,93.30
2018-07-23T00:05:02.205Z,93.30
2018-07-23T00:07:35.648Z,93.30
2018-07-23T00:10:09.076Z,93.30
2018-07-23T00:12:42.473Z,93.40
2018-07-23T00:15:15.894Z,93.20
2018-07-23T00:17:49.405Z,93.60
2018-07-23T00:20:22.841Z,93.50
2018-07-23T00:22:56.268Z,93.80
2018-07-23T00:25:30.103Z,93.70
2018-07-23T00:28:03.531Z,93.80
2018-07-23T00:30:37.041Z,93.70
2018-07-23T00:33:10.460Z,93.80
2018-07-23T00:35:43.892Z,93.80
2018-07-23T00:38:17.312Z,93.50
2018-07-23T00:40:50.736Z,93.40
2018-07-23T00:43:24.141Z,93.40
2018-07-23T00:45:57.561Z,93.40
2018-07-23T00:48:30.984Z,93.80
2018-07-23T00:51:04.485Z,93.30
2018-07-23T00:53:37.902Z,93.30
2018-07-23T00:56:11.341Z,93.30
2018-07-23T00:58:51.293Z,93.30
2018-07-23T01:01:24.715Z,93.30
2018-07-23T01:03:58.164Z,93.10
2018-07-23T01:06:31.569Z,93.20
2018-07-23T01:09:07.325Z,93.20
2018-07-23T01:11:40.751Z,93.20
2018-07-23T01:14:14.150Z,93.20
2018-07-23T01:16:47.572Z,93.30
2018-07-23T01:19:20.989Z,93.30
2018-07-23T01:21:54.452Z,93.30
2018-07-23T01:24:27.909Z,93.30
2018-07-23T01:27:01.291Z,93.50
2018-07-23T01:29:34.715Z,93.70
2018-07-23T01:32:08.172Z,93.60
2018-07-23T01:34:41.581Z,93.60
2018-07-23T01:37:15.412Z,93.60
2018-07-23T01:39:48.863Z,93.40
2018-07-23T01:42:22.289Z,93.40
2018-07-23T01:47:28.788Z,93.30
2018-07-23T01:50:02.202Z,93.20
2018-07-23T01:52:35.598Z,93.40
2018-07-23T01:55:09.072Z,93.50
2018-07-23T01:57:42.481Z,93.40
2018-07-23T02:00:15.943Z,93.60
2018-07-23T02:02:49.371Z,93.60
2018-07-23T02:05:22.812Z,93.80
2018-07-23T02:07:56.208Z,93.80
2018-07-23T02:10:29.651Z,93.70
2018-07-23T02:13:03.080Z,93.60
2018-07-23T02:15:36.502Z,93.70
2018-07-23T02:18:09.931Z,93.40
2018-07-23T02:20:43.323Z,93.20
2018-07-23T02:23:16.783Z,93.30
2018-07-23T02:25:50.152Z,93.30
2018-07-23T02:28:23.596Z,93.30
2018-07-23T02:30:57.012Z,93.40
2018-07-23T02:33:30.438Z,93.40
2018-07-23T02:36:03.840Z,93.40
2018-07-23T02:38:37.264Z,93.60
2018-07-23T02:41:10.742Z,93.60
2018-07-23T02:43:44.168Z,93.70
2018-07-23T02:46:17.619Z,93.70
2018-07-23T02:48:51.035Z,93.60
2018-07-23T02:51:24.427Z,93.50
2018-07-23T02:53:57.867Z,93.60
2018-07-23T02:56:31.318Z,93.50
2018-07-23T02:59:04.783Z,93.50
2018-07-23T03:01:38.238Z,93.40
2018-07-23T03:04:11.684Z,93.60
2018-07-23T03:06:45.085Z,93.60
2018-07-23T03:11:51.629Z,93.50
2018-07-23T03:14:25.051Z,93.50
2018-07-23T03:16:58.440Z,93.50
2018-07-23T03:19:31.851Z,93.50
2018-07-23T03:22:05.272Z,93.50
2018-07-23T03:24:38.662Z,93.40
2018-07-23T03:27:12.079Z,93.50
2018-07-23T03:29:45.511Z,93.70
2018-07-23T03:32:18.893Z,93.50
2018-07-23T03:34:52.319Z,93.70
2018-07-23T03:37:25.806Z,93.50
2018-07-23T03:39:59.237Z,93.50
2018-07-23T03:42:32.779Z,93.50
2018-07-23T03:45:06.759Z,93.50
2018-07-23T03:47:40.188Z,93.50
2018-07-23T03:50:13.588Z,93.70
2018-07-23T03:52:47.032Z,93.80
2018-07-23T03:55:20.493Z,93.60
2018-07-23T03:57:53.948Z,93.60
2018-07-23T04:03:00.575Z,93.60
2018-07-23T04:05:33.968Z,93.50
2018-07-23T04:08:07.460Z,93.60
2018-07-23T04:10:40.976Z,93.50
2018-07-23T04:13:14.376Z,93.40
2018-07-23T04:15:47.783Z,93.50
2018-07-23T04:18:21.249Z,93.50
2018-07-23T04:20:54.653Z,93.40
2018-07-23T04:23:28.092Z,93.40
2018-07-23T04:26:01.514Z,93.40
2018-07-23T04:28:34.966Z,93.40
2018-07-23T04:31:08.401Z,93.40
2018-07-23T04:33:41.820Z,93.60
2018-07-23T04:36:15.289Z,93.50
2018-07-23T04:38:48.720Z,93.50
2018-07-23T04:41:22.138Z,93.40
2018-07-23T04:43:55.578Z,93.40
2018-07-23T04:46:28.996Z,93.20
2018-07-23T04:51:35.573Z,93.10
2018-07-23T04:54:09.030Z,92.90
2018-07-23T04:56:42.541Z,92.90
2018-07-23T04:59:15.882Z,92.90
2018-07-23T05:01:49.365Z,93.00
2018-07-23T05:04:22.768Z,93.40
2018-07-23T05:06:56.238Z,93.20
2018-07-23T05:09:29.663Z,93.10
2018-07-23T05:12:03.113Z,93.00
2018-07-23T05:14:36.522Z,93.00
2018-07-23T05:17:09.962Z,93.10
2018-07-23T05:19:43.463Z,93.10
2018-07-23T05:22:16.868Z,93.40
2018-07-23T05:24:50.333Z,93.10
2018-07-23T05:27:23.732Z,93.30
2018-07-23T05:29:57.206Z,93.10
2018-07-23T05:32:30.640Z,93.10
2018-07-23T05:35:04.170Z,93.10
2018-07-23T05:37:37.538Z,93.30
2018-07-23T05:40:11.030Z,93.30
2018-07-23T05:42:44.427Z,93.00
2018-07-23T05:45:17.872Z,93.20
2018-07-23T05:47:51.311Z,92.90
2018-07-23T05:50:24.724Z,92.80
2018-07-23T05:52:58.179Z,92.50
2018-07-23T05:55:31.637Z,92.30
2018-07-23T05:58:05.093Z,91.90
2018-07-23T06:00:38.540Z,92.20
2018-07-23T06:03:12.029Z,92.00
2018-07-23T06:05:45.467Z,91.90
2018-07-23T06:08:18.944Z,91.80
2018-07-23T06:10:52.437Z,92.00
2018-07-23T06:13:25.911Z,91.90
2018-07-23T06:15:59.364Z,91.70
2018-07-23T06:18:32.939Z,91.80
2018-07-23T06:21:06.408Z,92.30
2018-07-23T06:23:39.863Z,92.30
2018-07-23T06:26:13.308Z,91.70
2018-07-23T06:28:46.753Z,91.70
2018-07-23T06:31:20.185Z,91.40
2018-07-23T06:33:53.697Z,91.50
2018-07-23T06:36:27.092Z,91.60
2018-07-23T06:39:00.511Z,91.40
2018-07-23T06:41:33.921Z,91.30
2018-07-23T06:44:07.805Z,91.10
2018-07-23T06:46:41.498Z,91.40
2018-07-23T06:49:14.921Z,91.30
2018-07-23T06:51:48.346Z,91.00
2018-07-23T06:54:21.815Z,90.90
2018-07-23T06:56:55.256Z,90.50
2018-07-23T06:59:28.679Z,90.30
2018-07-23T07:02:02.131Z,90.10
2018-07-23T07:04:35.618Z,89.20
2018-07-23T07:07:09.033Z,88.70
2018-07-23T07:09:42.493Z,89.20
2018-07-23T07:12:15.885Z,89.30
2018-07-23T07:14:49.298Z,88.90
2018-07-23T07:17:22.697Z,88.90
2018-07-23T07:22:29.220Z,88.80
2018-07-23T07:25:02.668Z,87.90
2018-07-23T07:27:36.069Z,87.10
2018-07-23T07:30:10.015Z,86.10
2018-07-23T07:32:43.425Z,86.30
2018-07-23T07:35:16.908Z,85.20
2018-07-23T07:37:50.398Z,85.20
2018-07-23T07:40:23.862Z,84.30
2018-07-23T07:42:57.321Z,83.80
2018-07-23T07:45:30.761Z,82.80
2018-07-23T07:48:04.237Z,80.70
2018-07-23T07:50:37.661Z,76.80
2018-07-23T07:53:11.096Z,73.90
2018-07-23T07:55:44.538Z,70.00
2018-07-23T07:58:18.026Z,68.90
2018-07-23T08:00:51.430Z,67.60
2018-07-23T08:03:24.920Z,66.70
2018-07-23T08:05:58.327Z,66.10
2018-07-23T08:08:31.799Z,64.60
2018-07-23T08:11:05.289Z,65.30
2018-07-23T08:13:38.678Z,65.40
2018-07-23T08:16:12.140Z,67.50
2018-07-23T08:18:45.612Z,66.80
2018-07-23T08:21:19.084Z,67.50
2018-07-23T08:23:52.541Z,66.10
2018-07-23T08:26:25.972Z,63.50
2018-07-23T08:28:59.413Z,65.10
2018-07-23T08:31:32.894Z,63.80
2018-07-23T08:34:06.345Z,62.30
2018-07-23T08:36:39.803Z,63.30
2018-07-23T08:39:19.944Z,63.00
2018-07-23T08:41:53.397Z,61.30
2018-07-23T08:44:26.853Z,59.60
2018-07-23T08:47:00.289Z,59.80
2018-07-23T08:49:33.749Z,58.00
2018-07-23T08:52:07.234Z,58.30
2018-07-23T08:54:40.623Z,58.00
2018-07-23T08:57:14.042Z,58.20
2018-07-23T08:59:47.460Z,58.80
2018-07-23T09:02:20.964Z,57.80
2018-07-23T09:04:54.362Z,58.40
2018-07-23T09:07:27.797Z,56.80
2018-07-23T09:10:01.192Z,56.70
2018-07-23T09:12:34.623Z,55.30
2018-07-23T09:15:08.110Z,56.00
2018-07-23T09:17:41.581Z,56.20
2018-07-23T09:20:15.003Z,56.00
2018-07-23T09:22:48.436Z,57.40
2018-07-23T09:25:21.859Z,57.00
2018-07-23T09:27:55.307Z,56.60
2018-07-23T09:30:34.104Z,57.50
2018-07-23T09:33:07.544Z,56.70
2018-07-23T09:35:41.007Z,58.20
2018-07-23T09:38:14.433Z,56.50
2018-07-23T09:40:47.853Z,56.20
2018-07-23T09:43:21.364Z,56.50
2018-07-23T09:45:54.760Z,55.50
2018-07-23T09:48:28.161Z,55.40
2018-07-23T09:51:01.569Z,55.80
2018-07-23T09:53:35.020Z,55.60
2018-07-23T09:56:08.720Z,55.10
2018-07-23T09:58:42.199Z,54.70
2018-07-23T10:01:18.184Z,54.70
2018-07-23T10:03:51.678Z,54.70
2018-07-23T10:06:25.092Z,55.40
2018-07-23T10:08:58.580Z,54.30
2018-07-23T10:11:32.009Z,55.50
2018-07-23T10:21:45.009Z,53.20
2018-07-23T10:24:18.477Z,52.90
2018-07-23T10:26:51.905Z,54.50
2018-07-23T10:29:25.481Z,52.50
2018-07-23T10:31:58.898Z,52.50
2018-07-23T10:34:32.402Z,52.60
2018-07-23T10:37:05.868Z,53.00
2018-07-23T10:39:39.300Z,52.80
2018-07-23T10:42:12.773Z,54.10
2018-07-23T10:44:46.170Z,53.50
2018-07-23T10:47:19.584Z,54.50
2018-07-23T10:49:53.134Z,53.20
2018-07-23T10:52:26.581Z,53.90
2018-07-23T10:55:00.002Z,54.50
2018-07-23T10:57:33.460Z,55.10
2018-07-23T11:00:07.110Z,54.10
2018-07-23T11:02:40.608Z,53.90
2018-07-23T11:05:14.076Z,54.10
2018-07-23T11:07:47.526Z,53.30
2018-07-23T11:10:20.978Z,54.10
2018-07-23T11:12:54.454Z,52.70
2018-07-23T11:15:27.943Z,53.40
2018-07-23T11:18:01.358Z,52.70
2018-07-23T11:20:34.813Z,51.60
2018-07-23T11:23:08.320Z,51.20
2018-07-23T11:25:41.754Z,52.40
2018-07-23T11:28:15.224Z,53.50
2018-07-23T11:30:48.642Z,52.70
2018-07-23T11:33:22.067Z,52.90
2018-07-23T11:35:55.472Z,52.70
2018-07-23T11:38:28.932Z,54.80
2018-07-23T11:41:02.372Z,55.70
2018-07-23T11:43:35.840Z,55.30
2018-07-23T11:46:09.489Z,55.30
2018-07-23T11:48:42.945Z,54.00
2018-07-23T11:51:16.370Z,54.20
2018-07-23T11:53:49.799Z,55.20
2018-07-23T11:56:23.260Z,56.40
2018-07-23T11:58:56.721Z,55.50
2018-07-23T12:01:30.162Z,55.50
2018-07-23T12:04:03.673Z,54.90
2018-07-23T12:06:37.111Z,54.40
2018-07-23T12:09:11.273Z,55.80
2018-07-23T12:11:44.717Z,54.60
2018-07-23T12:14:18.137Z,55.70
2018-07-23T12:16:51.576Z,53.70
2018-07-23T12:19:24.959Z,53.40
2018-07-23T12:21:58.420Z,53.20
2018-07-23T12:24:31.879Z,50.70
2018-07-23T12:27:05.380Z,49.80
2018-07-23T12:29:38.845Z,50.30
2018-07-23T12:32:12.315Z,49.20
2018-07-23T12:34:45.770Z,49.10
2018-07-23T12:37:19.200Z,49.50
2018-07-23T12:39:52.749Z,48.00
2018-07-23T12:42:26.117Z,48.10
2018-07-23T12:44:59.550Z,49.40
2018-07-23T12:47:33.050Z,52.10
2018-07-23T12:50:06.491Z,50.70
2018-07-23T12:52:39.979Z,50.30
2018-07-23T12:55:13.412Z,49.10
2018-07-23T12:57:46.900Z,51.40
2018-07-23T13:00:20.380Z,50.50
2018-07-23T13:02:53.843Z,51.90
2018-07-23T13:05:33.857Z,51.00
2018-07-23T13:08:07.401Z,50.30
2018-07-23T13:10:40.825Z,49.80
2018-07-23T13:13:14.261Z,50.80
2018-07-23T13:15:47.712Z,50.70
2018-07-23T13:18:21.159Z,50.60
2018-07-23T13:20:54.572Z,51.30
2018-07-23T13:23:28.033Z,49.60
2018-07-23T13:26:01.514Z,49.40
2018-07-23T13:28:35.048Z,50.60
2018-07-23T13:31:08.546Z,51.90
2018-07-23T13:33:42.005Z,50.10
2018-07-23T13:36:15.430Z,50.20
2018-07-23T13:38:49.136Z,50.50
2018-07-23T13:41:22.583Z,50.60
2018-07-23T13:43:56.049Z,50.00
2018-07-23T13:46:29.541Z,49.80
2018-07-23T13:49:05.872Z,49.20
2018-07-23T13:51:39.320Z,49.50
2018-07-23T13:54:12.789Z,47.80
2018-07-23T13:56:46.265Z,47.60
2018-07-23T13:59:19.798Z,47.50
2018-07-23T14:01:53.242Z,48.20
2018-07-23T14:04:26.725Z,48.60
2018-07-23T14:07:00.257Z,48.80
2018-07-23T14:09:33.740Z,47.50
2018-07-23T14:12:07.288Z,48.50
2018-07-23T14:14:40.727Z,49.60
2018-07-23T14:17:14.196Z,48.70
2018-07-23T14:19:47.615Z,48.00
2018-07-23T14:22:21.164Z,48.10
2018-07-23T14:24:54.703Z,47.70
2018-07-23T14:27:28.132Z,48.70
2018-07-23T14:30:01.650Z,49.80
2018-07-23T14:32:35.130Z,48.50
2018-07-23T14:35:08.601Z,47.50
2018-07-23T14:37:42.089Z,47.50
2018-07-23T14:40:15.576Z,47.20
2018-07-23T14:42:49.049Z,46.20
2018-07-23T14:45:22.500Z,48.40
2018-07-23T14:47:55.982Z,48.00
2018-07-23T14:50:29.454Z,48.60
2018-07-23T14:53:03.097Z,48.30
2018-07-23T14:55:36.579Z,48.90
2018-07-23T14:58:10.056Z,48.50
2018-07-23T15:00:43.501Z,47.40
2018-07-23T15:03:16.988Z,47.20
2018-07-23T15:05:50.411Z,47.10
2018-07-23T15:08:23.894Z,47.10
2018-07-23T15:10:57.333Z,47.90
2018-07-23T15:13:30.757Z,48.00
2018-07-23T15:16:04.376Z,47.00
2018-07-23T15:18:37.777Z,47.60
2018-07-23T15:21:11.268Z,45.80
2018-07-23T15:23:44.774Z,47.60
2018-07-23T15:26:18.211Z,46.70
2018-07-23T15:28:51.703Z,46.90
2018-07-23T15:31:25.136Z,46.00
2018-07-23T15:33:58.626Z,45.90
2018-07-23T15:36:32.273Z,47.60
2018-07-23T15:39:08.030Z,48.50
2018-07-23T15:41:41.521Z,46.90
2018-07-23T15:46:48.096Z,47.80
2018-07-23T15:49:21.583Z,48.10
2018-07-23T15:51:55.056Z,46.10
2018-07-23T15:54:28.479Z,46.20
2018-07-23T15:57:02.017Z,45.40
2018-07-23T15:59:35.512Z,45.30
2018-07-23T16:02:08.968Z,46.50
2018-07-23T16:04:42.437Z,46.30
2018-07-23T16:07:15.896Z,45.50
2018-07-23T16:09:49.515Z,45.30
2018-07-23T16:12:22.955Z,45.50
2018-07-23T16:14:56.447Z,46.10
2018-07-23T16:17:29.899Z,46.30
2018-07-23T16:20:03.400Z,47.60
2018-07-23T16:25:10.277Z,48.60
2018-07-23T16:27:43.724Z,49.10
2018-07-23T16:30:17.228Z,49.80
2018-07-23T16:32:50.677Z,49.50
2018-07-23T16:35:24.161Z,49.70
2018-07-23T16:37:57.628Z,49.00
2018-07-23T16:40:31.448Z,50.10
2018-07-23T16:43:04.987Z,50.60
2018-07-23T16:45:38.576Z,47.90
2018-07-23T16:48:12.137Z,48.90
2018-07-23T16:50:45.614Z,48.60
2018-07-23T16:53:19.069Z,50.00
2018-07-23T16:55:52.520Z,49.40
2018-07-23T16:58:25.974Z,50.20
2018-07-23T17:00:59.436Z,50.40
2018-07-23T17:03:32.898Z,49.70
2018-07-23T17:06:06.371Z,48.50
2018-07-23T17:08:39.869Z,49.20
2018-07-23T17:11:13.389Z,50.10
2018-07-23T17:13:46.845Z,49.00
2018-07-23T17:16:20.296Z,50.20
2018-07-23T17:18:53.760Z,50.10
2018-07-23T17:21:27.284Z,50.60
2018-07-23T17:24:00.748Z,50.70
2018-07-23T17:26:34.182Z,49.90
2018-07-23T17:29:07.746Z,50.00
2018-07-23T17:31:41.184Z,50.30
2018-07-23T17:34:14.637Z,50.40
2018-07-23T17:36:48.117Z,51.40
2018-07-23T17:39:21.561Z,49.90
2018-07-23T17:41:55.882Z,51.10
2018-07-23T17:44:29.381Z,49.60
2018-07-23T17:47:02.824Z,53.10
2018-07-23T17:49:36.313Z,53.80
2018-07-23T17:52:09.929Z,53.60
2018-07-23T17:54:43.460Z,53.10
2018-07-23T17:57:16.927Z,52.30
2018-07-23T17:59:50.389Z,53.20
2018-07-23T18:02:23.870Z,54.00
2018-07-23T18:04:57.389Z,53.50
2018-07-23T18:07:30.836Z,54.70
2018-07-23T18:10:04.377Z,54.80
2018-07-23T18:12:37.760Z,55.90
2018-07-23T18:15:11.247Z,56.50
2018-07-23T18:17:44.769Z,56.60
2018-07-23T18:20:18.173Z,57.10
2018-07-23T18:22:51.648Z,58.90
2018-07-23T18:25:25.064Z,59.60
2018-07-23T18:27:58.580Z,61.20
2018-07-23T18:30:32.314Z,61.40
2018-07-23T18:33:05.812Z,62.40
2018-07-23T18:35:39.316Z,63.10
2018-07-23T18:38:12.938Z,64.30
2018-07-23T18:40:46.251Z,64.50
2018-07-23T18:43:19.726Z,65.30
2018-07-23T18:45:53.117Z,66.20
2018-07-23T18:49:38.115Z,66.50
2018-07-23T18:52:11.942Z,65.80
2018-07-23T18:54:46.744Z,66.70
2018-07-23T18:57:20.244Z,67.20
2018-07-23T18:59:53.774Z,66.70
2018-07-23T19:02:27.235Z,66.10
2018-07-23T19:05:00.750Z,65.60
2018-07-23T19:07:34.228Z,66.30
2018-07-23T19:10:09.330Z,67.50
2018-07-23T19:12:42.816Z,67.90
2018-07-23T19:15:16.334Z,68.90
2018-07-23T19:17:49.858Z,70.40
2018-07-23T19:20:23.455Z,70.00
2018-07-23T19:22:56.861Z,70.60
2018-07-23T19:25:30.321Z,70.00
2018-07-23T19:28:03.798Z,70.40
2018-07-23T19:30:37.255Z,70.00
2018-07-23T19:33:10.795Z,71.40
2018-07-23T19:35:44.277Z,71.00
2018-07-23T19:38:17.798Z,71.80
2018-07-23T19:40:51.276Z,71.70
2018-07-23T19:43:24.805Z,71.50
2018-07-23T19:45:58.562Z,71.40
2018-07-23T19:48:32.073Z,72.50
2018-07-23T19:51:05.628Z,73.20
2018-07-23T19:53:39.508Z,72.50
2018-07-23T19:56:13.009Z,73.30
2018-07-23T19:58:46.565Z,73.90
2018-07-23T20:01:20.028Z,74.30
2018-07-23T20:03:53.516Z,74.70
2018-07-23T20:06:27.689Z,74.70
2018-07-23T20:09:01.872Z,75.30
2018-07-23T20:11:35.326Z,75.40
2018-07-23T20:14:08.763Z,75.80
2018-07-23T20:16:42.253Z,77.40
2018-07-23T20:19:15.756Z,77.30
2018-07-23T20:21:49.297Z,76.30
2018-07-23T20:24:22.781Z,77.60
2018-07-23T20:26:56.284Z,77.80
2018-07-23T20:29:29.771Z,77.70
2018-07-23T20:32:03.265Z,77.70
2018-07-23T20:34:36.753Z,78.40
2018-07-23T20:37:10.283Z,78.20
2018-07-23T20:39:43.775Z,77.80
2018-07-23T20:42:17.253Z,78.20
2018-07-23T20:44:50.695Z,79.50
2018-07-23T20:47:24.404Z,79.20
2018-07-23T20:49:57.881Z,79.50
2018-07-23T20:52:31.347Z,79.90
2018-07-23T20:55:04.866Z,79.80
2018-07-23T20:57:38.357Z,79.30
2018-07-23T21:00:11.849Z,79.60
2018-07-23T21:02:45.372Z,79.50
2018-07-23T21:05:18.864Z,79.90
2018-07-23T21:07:52.327Z,79.20
2018-07-23T21:10:25.744Z,79.80
2018-07-23T21:12:59.479Z,80.10
2018-07-23T21:15:33.101Z,80.40
2018-07-23T21:18:06.727Z,80.60
2018-07-23T21:20:40.290Z,81.00
2018-07-23T21:23:13.764Z,80.80
2018-07-23T21:25:47.239Z,81.10
2018-07-23T21:28:20.673Z,81.40
2018-07-23T21:30:54.149Z,81.20
2018-07-23T21:33:27.596Z,81.50
2018-07-23T21:36:01.051Z,81.50
2018-07-23T21:38:34.473Z,80.90
2018-07-23T21:41:07.903Z,81.50
2018-07-23T21:43:52.907Z,82.50
2018-07-23T21:46:26.412Z,82.60
2018-07-23T21:48:59.832Z,81.80
2018-07-23T21:51:33.307Z,81.50
2018-07-23T21:54:06.820Z,81.50
2018-07-23T21:56:40.276Z,81.00
2018-07-23T21:59:13.884Z,80.90
2018-07-23T22:01:47.444Z,81.30
2018-07-23T22:04:20.860Z,81.60
2018-07-23T22:06:54.323Z,81.20
2018-07-23T22:09:27.842Z,81.50
2018-07-23T22:12:01.304Z,81.70
2018-07-23T22:14:34.730Z,81.70
2018-07-23T22:17:08.251Z,81.80
2018-07-23T22:19:41.678Z,82.20
2018-07-23T22:22:15.162Z,82.80
2018-07-23T22:24:48.582Z,83.20
2018-07-23T22:27:22.091Z,83.70
2018-07-23T22:29:55.534Z,84.10
2018-07-23T22:32:29.038Z,84.10
2018-07-23T22:35:02.537Z,84.60
2018-07-23T22:37:35.981Z,84.40
2018-07-23T22:40:09.476Z,84.20
2018-07-23T22:42:43.328Z,84.60
2018-07-23T22:45:16.752Z,84.90
2018-07-23T22:47:50.231Z,84.90
2018-07-23T22:50:23.685Z,85.00
2018-07-23T22:52:57.166Z,85.60
2018-07-23T22:55:30.596Z,85.30
2018-07-23T22:58:04.465Z,85.70
2018-07-23T23:03:11.161Z,85.70
2018-07-23T23:05:44.594Z,85.60
2018-07-23T23:08:18.096Z,85.80
2018-07-23T23:10:51.535Z,85.60
2018-07-23T23:13:25.052Z,85.60
2018-07-23T23:15:58.495Z,85.50
2018-07-23T23:18:31.985Z,85.20
2018-07-23T23:21:05.428Z,85.70
2018-07-23T23:23:38.883Z,85.70
2018-07-23T23:26:12.283Z,86.30
2018-07-23T23:28:45.712Z,86.40
2018-07-23T23:31:19.124Z,86.40
2018-07-23T23:33:52.582Z,86.20
2018-07-23T23:36:25.972Z,86.00
2018-07-23T23:38:59.417Z,86.10
2018-07-23T23:41:32.828Z,85.90
2018-07-23T23:44:06.284Z,86.00
2018-07-23T23:46:39.731Z,85.90
2018-07-23T23:49:13.157Z,85.80
2018-07-23T23:51:46.596Z,85.40
2018-07-23T23:54:20.009Z,85.90
2018-07-23T23:56:53.423Z,86.50
2018-07-23T23:59:26.845Z,86.90
